sensor_id;sensor_type;location;lat;lon;timestamp;pressure;altitude;pressure_sealevel;temperature;humidity
78337;BME280;67610;51.588;7.002;2023-08-12T00:02:09;101059.34;;;23.47;67.76
78337;BME280;67610;51.588;7.002;2023-08-12T00:04:34;101064.13;;;23.45;67.94
78337;BME280;67610;51.588;7.002;2023-08-12T00:06:59;101052.56;;;23.44;68.04
78337;BME280;67610;51.588;7.002;2023-08-12T00:09:25;101052.78;;;23.43;67.99
78337;BME280;67610;51.588;7.002;2023-08-12T00:11:50;101048.47;;;23.42;68.24
78337;BME280;67610;51.588;7.002;2023-08-12T00:14:15;101049.06;;;23.44;68.00
78337;BME280;67610;51.588;7.002;2023-08-12T00:16:41;101043.25;;;23.47;68.38
78337;BME280;67610;51.588;7.002;2023-08-12T00:19:06;101046.38;;;23.44;67.83
78337;BME280;67610;51.588;7.002;2023-08-12T00:21:33;101053.84;;;23.42;68.23
78337;BME280;67610;51.588;7.002;2023-08-12T00:23:58;101051.22;;;23.35;68.00
78337;BME280;67610;51.588;7.002;2023-08-12T00:26:24;101048.13;;;23.32;68.28
78337;BME280;67610;51.588;7.002;2023-08-12T00:28:49;101048.59;;;23.29;68.16
78337;BME280;67610;51.588;7.002;2023-08-12T00:31:15;101048.22;;;23.25;68.17
78337;BME280;67610;51.588;7.002;2023-08-12T00:33:40;101052.59;;;23.20;68.40
78337;BME280;67610;51.588;7.002;2023-08-12T00:36:06;101048.56;;;23.11;68.34
78337;BME280;67610;51.588;7.002;2023-08-12T00:38:32;101049.91;;;23.02;68.70
78337;BME280;67610;51.588;7.002;2023-08-12T00:40:57;101050.81;;;22.96;69.19
78337;BME280;67610;51.588;7.002;2023-08-12T00:43:23;101044.25;;;22.91;69.33
78337;BME280;67610;51.588;7.002;2023-08-12T00:45:48;101043.66;;;22.89;69.59
78337;BME280;67610;51.588;7.002;2023-08-12T00:48:14;101032.31;;;22.87;69.71
78337;BME280;67610;51.588;7.002;2023-08-12T00:50:41;101033.97;;;22.88;69.82
78337;BME280;67610;51.588;7.002;2023-08-12T00:53:07;101025.25;;;22.93;69.59
78337;BME280;67610;51.588;7.002;2023-08-12T00:55:33;101033.66;;;22.97;69.62
78337;BME280;67610;51.588;7.002;2023-08-12T00:57:59;101029.34;;;22.96;69.70
78337;BME280;67610;51.588;7.002;2023-08-12T01:00:25;101029.78;;;22.92;69.83
78337;BME280;67610;51.588;7.002;2023-08-12T01:02:51;101022.81;;;22.91;69.83
78337;BME280;67610;51.588;7.002;2023-08-12T01:05:17;101025.25;;;22.93;69.63
78337;BME280;67610;51.588;7.002;2023-08-12T01:07:42;101018.38;;;22.97;69.55
78337;BME280;67610;51.588;7.002;2023-08-12T01:10:08;101022.34;;;22.94;70.06
78337;BME280;67610;51.588;7.002;2023-08-12T01:13:16;101025.59;;;22.97;71.24
78337;BME280;67610;51.588;7.002;2023-08-12T01:15:44;101015.03;;;23.02;69.77
78337;BME280;67610;51.588;7.002;2023-08-12T01:18:11;101016.44;;;23.04;69.79
78337;BME280;67610;51.588;7.002;2023-08-12T01:20:38;101023.09;;;23.02;70.26
78337;BME280;67610;51.588;7.002;2023-08-12T01:23:13;101015.69;;;22.97;71.65
78337;BME280;67610;51.588;7.002;2023-08-12T01:25:40;101014.16;;;22.89;70.70
78337;BME280;67610;51.588;7.002;2023-08-12T01:28:05;101014.59;;;22.86;70.59
78337;BME280;67610;51.588;7.002;2023-08-12T01:30:33;101008.63;;;22.84;70.60
78337;BME280;67610;51.588;7.002;2023-08-12T01:33:15;101000.78;;;22.83;71.78
78337;BME280;67610;51.588;7.002;2023-08-12T01:35:51;100987.38;;;22.83;71.12
78337;BME280;67610;51.588;7.002;2023-08-12T01:38:19;100990.66;;;22.85;71.48
78337;BME280;67610;51.588;7.002;2023-08-12T01:40:45;100995.00;;;22.86;70.97
78337;BME280;67610;51.588;7.002;2023-08-12T01:43:11;100991.72;;;22.84;70.79
78337;BME280;67610;51.588;7.002;2023-08-12T01:45:37;100984.94;;;22.81;71.48
78337;BME280;67610;51.588;7.002;2023-08-12T01:48:03;100986.59;;;22.82;71.21
78337;BME280;67610;51.588;7.002;2023-08-12T01:50:28;100988.19;;;22.83;71.00
78337;BME280;67610;51.588;7.002;2023-08-12T01:52:53;100981.81;;;22.84;70.90
78337;BME280;67610;51.588;7.002;2023-08-12T01:55:19;100982.84;;;22.83;71.03
78337;BME280;67610;51.588;7.002;2023-08-12T01:57:44;100981.22;;;22.82;71.05
78337;BME280;67610;51.588;7.002;2023-08-12T02:00:11;100985.53;;;22.83;71.34
78337;BME280;67610;51.588;7.002;2023-08-12T02:02:36;100984.34;;;22.79;70.92
78337;BME280;67610;51.588;7.002;2023-08-12T02:05:02;100987.84;;;22.80;71.48
78337;BME280;67610;51.588;7.002;2023-08-12T02:07:28;100987.00;;;22.79;71.53
78337;BME280;67610;51.588;7.002;2023-08-12T02:09:53;100982.69;;;22.78;71.14
78337;BME280;67610;51.588;7.002;2023-08-12T02:12:18;100976.72;;;22.76;71.72
78337;BME280;67610;51.588;7.002;2023-08-12T02:14:44;100979.63;;;22.75;71.92
78337;BME280;67610;51.588;7.002;2023-08-12T02:17:10;100982.09;;;22.76;72.11
78337;BME280;67610;51.588;7.002;2023-08-12T02:19:35;100972.19;;;22.77;71.73
78337;BME280;67610;51.588;7.002;2023-08-12T02:22:01;100975.09;;;22.75;72.17
78337;BME280;67610;51.588;7.002;2023-08-12T02:24:28;100973.44;;;22.74;71.83
78337;BME280;67610;51.588;7.002;2023-08-12T02:26:54;100965.84;;;22.71;72.02
78337;BME280;67610;51.588;7.002;2023-08-12T02:29:19;100964.81;;;22.72;72.29
78337;BME280;67610;51.588;7.002;2023-08-12T02:31:44;100964.22;;;22.70;72.29
78337;BME280;67610;51.588;7.002;2023-08-12T02:34:10;100963.16;;;22.71;72.54
78337;BME280;67610;51.588;7.002;2023-08-12T02:36:35;100956.16;;;22.70;72.66
78337;BME280;67610;51.588;7.002;2023-08-12T02:39:01;100960.03;;;22.74;72.65
78337;BME280;67610;51.588;7.002;2023-08-12T02:41:26;100951.56;;;22.77;72.65
78337;BME280;67610;51.588;7.002;2023-08-12T02:43:51;100946.78;;;22.79;73.04
78337;BME280;67610;51.588;7.002;2023-08-12T02:46:17;100949.47;;;22.79;72.56
78337;BME280;67610;51.588;7.002;2023-08-12T02:48:43;100951.09;;;22.80;72.57
78337;BME280;67610;51.588;7.002;2023-08-12T02:51:08;100947.38;;;22.81;72.36
78337;BME280;67610;51.588;7.002;2023-08-12T02:53:35;100943.28;;;22.79;72.61
78337;BME280;67610;51.588;7.002;2023-08-12T02:56:00;100938.16;;;22.77;72.80
78337;BME280;67610;51.588;7.002;2023-08-12T02:58:25;100935.00;;;22.80;72.76
78337;BME280;67610;51.588;7.002;2023-08-12T03:00:51;100934.25;;;22.73;72.98
78337;BME280;67610;51.588;7.002;2023-08-12T03:03:16;100927.25;;;22.72;73.27
78337;BME280;67610;51.588;7.002;2023-08-12T03:05:46;100928.28;;;22.71;73.08
78337;BME280;67610;51.588;7.002;2023-08-12T03:08:11;100924.00;;;22.70;72.65
78337;BME280;67610;51.588;7.002;2023-08-12T03:10:38;100924.00;;;22.70;72.75
78337;BME280;67610;51.588;7.002;2023-08-12T03:13:03;100920.72;;;22.68;72.89
78337;BME280;67610;51.588;7.002;2023-08-12T03:15:28;100921.75;;;22.67;73.31
78337;BME280;67610;51.588;7.002;2023-08-12T03:17:54;100912.06;;;22.66;73.42
78337;BME280;67610;51.588;7.002;2023-08-12T03:20:20;100916.16;;;22.69;73.14
78337;BME280;67610;51.588;7.002;2023-08-12T03:22:46;100912.00;;;22.73;73.52
78337;BME280;67610;51.588;7.002;2023-08-12T03:25:11;100907.81;;;22.77;73.13
78337;BME280;67610;51.588;7.002;2023-08-12T03:27:36;100909.91;;;22.75;72.89
78337;BME280;67610;51.588;7.002;2023-08-12T03:30:02;100916.09;;;22.75;72.95
78337;BME280;67610;51.588;7.002;2023-08-12T03:32:28;100912.59;;;22.75;73.34
78337;BME280;67610;51.588;7.002;2023-08-12T03:34:53;100909.06;;;22.74;72.84
78337;BME280;67610;51.588;7.002;2023-08-12T03:37:19;100899.84;;;22.70;72.96
78337;BME280;67610;51.588;7.002;2023-08-12T03:39:44;100904.16;;;22.71;73.56
78337;BME280;67610;51.588;7.002;2023-08-12T03:42:10;100901.03;;;22.74;73.61
78337;BME280;67610;51.588;7.002;2023-08-12T03:44:35;100903.94;;;22.73;73.15
78337;BME280;67610;51.588;7.002;2023-08-12T03:47:01;100896.59;;;22.68;73.32
78337;BME280;67610;51.588;7.002;2023-08-12T03:49:26;100900.28;;;22.67;73.16
78337;BME280;67610;51.588;7.002;2023-08-12T03:51:51;100902.06;;;22.73;73.43
78337;BME280;67610;51.588;7.002;2023-08-12T03:54:18;100900.78;;;22.76;73.20
78337;BME280;67610;51.588;7.002;2023-08-12T03:56:43;100899.53;;;22.78;73.09
78337;BME280;67610;51.588;7.002;2023-08-12T03:59:08;100902.81;;;22.80;73.16
78337;BME280;67610;51.588;7.002;2023-08-12T04:01:34;100898.25;;;22.81;73.13
78337;BME280;67610;51.588;7.002;2023-08-12T04:03:59;100900.34;;;22.79;73.09
78337;BME280;67610;51.588;7.002;2023-08-12T04:06:24;100896.84;;;22.78;73.00
78337;BME280;67610;51.588;7.002;2023-08-12T04:08:50;100893.56;;;22.76;73.00
78337;BME280;67610;51.588;7.002;2023-08-12T04:11:15;100891.34;;;22.73;72.82
78337;BME280;67610;51.588;7.002;2023-08-12T04:13:40;100893.56;;;22.76;72.78
78337;BME280;67610;51.588;7.002;2023-08-12T04:16:06;100890.06;;;22.76;72.93
78337;BME280;67610;51.588;7.002;2023-08-12T04:18:31;100896.06;;;22.78;72.93
78337;BME280;67610;51.588;7.002;2023-08-12T04:20:57;100885.53;;;22.76;73.31
78337;BME280;67610;51.588;7.002;2023-08-12T04:23:22;100882.69;;;22.71;72.94
78337;BME280;67610;51.588;7.002;2023-08-12T04:25:47;100881.66;;;22.72;73.03
78337;BME280;67610;51.588;7.002;2023-08-12T04:28:14;100883.75;;;22.70;73.50
78337;BME280;67610;51.588;7.002;2023-08-12T04:30:44;100881.91;;;22.71;73.78
78337;BME280;67610;51.588;7.002;2023-08-12T04:33:10;100878.41;;;22.70;73.17
78337;BME280;67610;51.588;7.002;2023-08-12T04:35:35;100863.34;;;22.69;73.19
78337;BME280;67610;51.588;7.002;2023-08-12T04:38:01;100868.25;;;22.72;73.56
78337;BME280;67610;51.588;7.002;2023-08-12T04:40:26;100854.63;;;22.74;73.68
78337;BME280;67610;51.588;7.002;2023-08-12T04:42:54;100852.53;;;22.76;73.42
78337;BME280;67610;51.588;7.002;2023-08-12T04:45:20;100845.91;;;22.78;73.20
78337;BME280;67610;51.588;7.002;2023-08-12T04:47:45;100846.47;;;22.80;73.00
78337;BME280;67610;51.588;7.002;2023-08-12T04:50:10;100841.94;;;22.81;72.92
78337;BME280;67610;51.588;7.002;2023-08-12T04:52:36;100837.63;;;22.80;73.04
78337;BME280;67610;51.588;7.002;2023-08-12T04:55:01;100842.19;;;22.79;73.13
78337;BME280;67610;51.588;7.002;2023-08-12T04:57:28;100836.81;;;22.79;73.08
78337;BME280;67610;51.588;7.002;2023-08-12T04:59:53;100834.72;;;22.81;72.99
78337;BME280;67610;51.588;7.002;2023-08-12T05:02:19;100836.97;;;22.84;72.74
78337;BME280;67610;51.588;7.002;2023-08-12T05:04:50;100833.00;;;22.87;72.88
78337;BME280;67610;51.588;7.002;2023-08-12T05:07:15;100828.44;;;22.87;72.65
78337;BME280;67610;51.588;7.002;2023-08-12T05:09:41;100833.34;;;22.90;72.56
78337;BME280;67610;51.588;7.002;2023-08-12T05:12:09;100835.00;;;22.91;72.19
78337;BME280;67610;51.588;7.002;2023-08-12T05:14:35;100825.06;;;22.92;72.37
78337;BME280;67610;51.588;7.002;2023-08-12T05:17:00;100826.03;;;22.98;72.50
78337;BME280;67610;51.588;7.002;2023-08-12T05:19:25;100819.16;;;23.02;72.40
78337;BME280;67610;51.588;7.002;2023-08-12T05:21:53;100820.94;;;23.08;72.24
78337;BME280;67610;51.588;7.002;2023-08-12T05:24:19;100822.72;;;23.14;72.30
78337;BME280;67610;51.588;7.002;2023-08-12T05:26:44;100824.13;;;23.16;72.18
78337;BME280;67610;51.588;7.002;2023-08-12T05:29:10;100828.06;;;23.14;72.30
78337;BME280;67610;51.588;7.002;2023-08-12T05:31:35;100824.56;;;23.13;72.66
78337;BME280;67610;51.588;7.002;2023-08-12T05:34:00;100819.19;;;23.13;72.70
78337;BME280;67610;51.588;7.002;2023-08-12T05:36:26;100821.69;;;23.15;72.78
78337;BME280;67610;51.588;7.002;2023-08-12T05:38:51;100825.88;;;23.22;72.99
78337;BME280;67610;51.588;7.002;2023-08-12T05:41:17;100825.09;;;23.22;72.59
78337;BME280;67610;51.588;7.002;2023-08-12T05:43:42;100821.34;;;23.23;72.84
78337;BME280;67610;51.588;7.002;2023-08-12T05:46:07;100823.44;;;23.21;72.57
78337;BME280;67610;51.588;7.002;2023-08-12T05:48:33;100824.34;;;23.15;72.63
78337;BME280;67610;51.588;7.002;2023-08-12T05:50:58;100820.25;;;23.12;72.80
78337;BME280;67610;51.588;7.002;2023-08-12T05:53:23;100818.16;;;23.14;73.19
78337;BME280;67610;51.588;7.002;2023-08-12T05:55:49;100812.66;;;23.09;73.22
78337;BME280;67610;51.588;7.002;2023-08-12T05:58:14;100809.41;;;23.07;73.22
78337;BME280;67610;51.588;7.002;2023-08-12T06:00:40;100801.94;;;23.09;72.79
78337;BME280;67610;51.588;7.002;2023-08-12T06:03:05;100796.81;;;23.08;73.53
78337;BME280;67610;51.588;7.002;2023-08-12T06:05:31;100799.13;;;23.16;73.52
78337;BME280;67610;51.588;7.002;2023-08-12T06:07:56;100799.28;;;23.21;73.08
78337;BME280;67610;51.588;7.002;2023-08-12T06:10:21;100801.97;;;23.21;72.87
78337;BME280;67610;51.588;7.002;2023-08-12T06:12:47;100798.81;;;23.24;72.83
78337;BME280;67610;51.588;7.002;2023-08-12T06:15:12;100794.38;;;23.29;73.01
78337;BME280;67610;51.588;7.002;2023-08-12T06:17:37;100796.84;;;23.31;72.69
78337;BME280;67610;51.588;7.002;2023-08-12T06:22:28;100798.47;;;23.32;72.93
78337;BME280;67610;51.588;7.002;2023-08-12T06:24:53;100793.59;;;23.29;73.00
78337;BME280;67610;51.588;7.002;2023-08-12T06:27:19;100798.97;;;23.29;72.65
78337;BME280;67610;51.588;7.002;2023-08-12T06:29:46;100792.38;;;23.25;72.72
78337;BME280;67610;51.588;7.002;2023-08-12T06:32:12;100797.63;;;23.20;72.46
78337;BME280;67610;51.588;7.002;2023-08-12T06:34:38;100796.00;;;23.19;72.76
78337;BME280;67610;51.588;7.002;2023-08-12T06:37:03;100799.38;;;23.14;73.07
78337;BME280;67610;51.588;7.002;2023-08-12T06:39:29;100803.34;;;23.12;73.15
78337;BME280;67610;51.588;7.002;2023-08-12T06:41:54;100802.16;;;23.08;73.07
78337;BME280;67610;51.588;7.002;2023-08-12T06:44:21;100803.44;;;23.05;73.33
78337;BME280;67610;51.588;7.002;2023-08-12T06:46:49;100802.63;;;23.05;73.73
78337;BME280;67610;51.588;7.002;2023-08-12T06:49:15;100791.28;;;23.03;73.35
78337;BME280;67610;51.588;7.002;2023-08-12T06:51:40;100784.97;;;22.97;73.59
78337;BME280;67610;51.588;7.002;2023-08-12T06:54:06;100780.88;;;22.94;73.43
78337;BME280;67610;51.588;7.002;2023-08-12T06:56:31;100785.44;;;22.94;73.89
78337;BME280;67610;51.588;7.002;2023-08-12T06:58:57;100770.03;;;22.89;73.79
78337;BME280;67610;51.588;7.002;2023-08-12T07:01:22;100772.25;;;22.92;74.03
78337;BME280;67610;51.588;7.002;2023-08-12T07:03:47;100770.16;;;22.94;74.13
78337;BME280;67610;51.588;7.002;2023-08-12T07:06:13;100760.38;;;23.00;74.18
78337;BME280;67610;51.588;7.002;2023-08-12T07:08:38;100765.63;;;23.07;73.52
78337;BME280;67610;51.588;7.002;2023-08-12T07:11:04;100766.31;;;23.02;73.59
78337;BME280;67610;51.588;7.002;2023-08-12T07:13:30;100750.69;;;22.99;74.03
78337;BME280;67610;51.588;7.002;2023-08-12T07:15:55;100756.97;;;22.93;74.28
78337;BME280;67610;51.588;7.002;2023-08-12T07:18:21;100757.31;;;22.97;74.06
78337;BME280;67610;51.588;7.002;2023-08-12T07:20:48;100768.03;;;22.97;73.91
78337;BME280;67610;51.588;7.002;2023-08-12T07:23:13;100774.03;;;22.99;73.87
78337;BME280;67610;51.588;7.002;2023-08-12T07:25:39;100775.41;;;23.01;74.39
78337;BME280;67610;51.588;7.002;2023-08-12T07:28:06;100766.78;;;22.99;74.21
78337;BME280;67610;51.588;7.002;2023-08-12T07:30:34;100762.22;;;23.00;74.16
78337;BME280;67610;51.588;7.002;2023-08-12T07:33:00;100768.91;;;23.09;73.85
78337;BME280;67610;51.588;7.002;2023-08-12T07:35:25;100764.13;;;23.11;73.97
78337;BME280;67610;51.588;7.002;2023-08-12T07:37:51;100771.59;;;23.09;73.84
78337;BME280;67610;51.588;7.002;2023-08-12T07:40:16;100762.03;;;23.13;73.82
78337;BME280;67610;51.588;7.002;2023-08-12T07:42:41;100772.31;;;23.16;73.93
78337;BME280;67610;51.588;7.002;2023-08-12T07:45:07;100768.00;;;23.15;73.57
78337;BME280;67610;51.588;7.002;2023-08-12T07:47:37;100769.88;;;23.14;73.93
78337;BME280;67610;51.588;7.002;2023-08-12T07:50:02;100772.31;;;23.16;73.82
78337;BME280;67610;51.588;7.002;2023-08-12T07:52:28;100771.41;;;23.22;73.70
78337;BME280;67610;51.588;7.002;2023-08-12T07:54:53;100772.78;;;23.24;73.58
78337;BME280;67610;51.588;7.002;2023-08-12T07:57:21;100772.31;;;23.16;73.88
78337;BME280;67610;51.588;7.002;2023-08-12T07:59:50;100766.22;;;23.09;73.90
78337;BME280;67610;51.588;7.002;2023-08-12T08:02:15;100768.19;;;23.02;73.96
78337;BME280;67610;51.588;7.002;2023-08-12T08:04:41;100775.09;;;23.09;74.12
78337;BME280;67610;51.588;7.002;2023-08-12T08:07:06;100763.41;;;23.04;75.10
78337;BME280;67610;51.588;7.002;2023-08-12T08:09:31;100755.97;;;23.06;74.58
78337;BME280;67610;51.588;7.002;2023-08-12T08:11:58;100752.34;;;23.12;74.49
78337;BME280;67610;51.588;7.002;2023-08-12T08:14:25;100745.25;;;23.17;74.07
78337;BME280;67610;51.588;7.002;2023-08-12T08:16:51;100741.97;;;23.15;74.61
78337;BME280;67610;51.588;7.002;2023-08-12T08:19:16;100749.81;;;23.17;73.70
78337;BME280;67610;51.588;7.002;2023-08-12T08:21:41;100751.28;;;23.13;74.22
78337;BME280;67610;51.588;7.002;2023-08-12T08:24:07;100755.28;;;23.10;74.29
78337;BME280;67610;51.588;7.002;2023-08-12T08:26:33;100752.59;;;23.10;74.40
78337;BME280;67610;51.588;7.002;2023-08-12T08:28:59;100750.84;;;23.16;74.33
78337;BME280;67610;51.588;7.002;2023-08-12T08:31:24;100750.72;;;23.22;74.61
78337;BME280;67610;51.588;7.002;2023-08-12T08:33:50;100737.69;;;23.26;74.36
78337;BME280;67610;51.588;7.002;2023-08-12T08:36:15;100746.81;;;23.36;74.62
78337;BME280;67610;51.588;7.002;2023-08-12T08:38:41;100750.06;;;23.38;74.08
78337;BME280;67610;51.588;7.002;2023-08-12T08:41:08;100739.00;;;23.46;73.87
78337;BME280;67610;51.588;7.002;2023-08-12T08:43:35;100741.81;;;23.51;73.58
78337;BME280;67610;51.588;7.002;2023-08-12T08:46:01;100739.34;;;23.50;73.68
78337;BME280;67610;51.588;7.002;2023-08-12T08:48:27;100745.06;;;23.42;74.32
78337;BME280;67610;51.588;7.002;2023-08-12T08:50:53;100744.25;;;23.41;74.22
78337;BME280;67610;51.588;7.002;2023-08-12T08:53:19;100747.06;;;23.35;74.48
78337;BME280;67610;51.588;7.002;2023-08-12T08:55:45;100745.28;;;23.29;74.87
78337;BME280;67610;51.588;7.002;2023-08-12T09:00:37;100748.53;;;23.31;75.25
78337;BME280;67610;51.588;7.002;2023-08-12T09:03:04;100746.44;;;23.33;74.96
78337;BME280;67610;51.588;7.002;2023-08-12T09:05:30;100751.09;;;23.26;74.66
78337;BME280;67610;51.588;7.002;2023-08-12T09:07:56;100752.63;;;23.22;74.81
78337;BME280;67610;51.588;7.002;2023-08-12T09:10:26;100753.88;;;23.19;75.47
78337;BME280;67610;51.588;7.002;2023-08-12T09:12:53;100752.47;;;23.17;75.44
78337;BME280;67610;51.588;7.002;2023-08-12T09:15:20;100757.72;;;23.12;75.39
78337;BME280;67610;51.588;7.002;2023-08-12T09:17:45;100757.97;;;23.10;75.98
78337;BME280;67610;51.588;7.002;2023-08-12T09:20:11;100759.56;;;23.11;75.50
78337;BME280;67610;51.588;7.002;2023-08-12T09:22:38;100757.59;;;23.07;76.02
78337;BME280;67610;51.588;7.002;2023-08-12T09:25:04;100757.13;;;23.10;75.64
78337;BME280;67610;51.588;7.002;2023-08-12T09:27:33;100755.97;;;23.06;75.52
78337;BME280;67610;51.588;7.002;2023-08-12T09:29:58;100754.78;;;23.02;75.94
78337;BME280;67610;51.588;7.002;2023-08-12T09:32:24;100769.16;;;23.07;76.52
78337;BME280;67610;51.588;7.002;2023-08-12T09:34:52;100764.81;;;23.06;76.50
78337;BME280;67610;51.588;7.002;2023-08-12T09:37:17;100759.22;;;23.08;76.51
78337;BME280;67610;51.588;7.002;2023-08-12T09:39:44;100753.38;;;23.11;75.58
78337;BME280;67610;51.588;7.002;2023-08-12T09:42:13;100765.31;;;23.15;75.87
78337;BME280;67610;51.588;7.002;2023-08-12T09:44:39;100759.47;;;23.18;75.82
78337;BME280;67610;51.588;7.002;2023-08-12T09:47:06;100759.47;;;23.18;76.12
78337;BME280;67610;51.588;7.002;2023-08-12T09:49:34;100756.19;;;23.16;76.08
78337;BME280;67610;51.588;7.002;2023-08-12T09:52:01;100755.75;;;23.19;76.25
78337;BME280;67610;51.588;7.002;2023-08-12T09:54:28;100755.75;;;23.19;76.37
78337;BME280;67610;51.588;7.002;2023-08-12T09:57:01;100764.25;;;23.16;76.66
78337;BME280;67610;51.588;7.002;2023-08-12T09:59:32;100767.75;;;23.16;76.20
78337;BME280;67610;51.588;7.002;2023-08-12T10:01:58;100769.50;;;23.11;76.38
78337;BME280;67610;51.588;7.002;2023-08-12T10:04:29;100765.16;;;22.98;76.71
78337;BME280;67610;51.588;7.002;2023-08-12T10:06:59;100772.94;;;22.88;77.32
78337;BME280;67610;51.588;7.002;2023-08-12T10:09:25;100769.53;;;22.81;77.78
78337;BME280;67610;51.588;7.002;2023-08-12T10:11:52;100764.28;;;22.86;77.75
78337;BME280;67610;51.588;7.002;2023-08-12T10:14:18;100761.41;;;22.99;77.76
78337;BME280;67610;51.588;7.002;2023-08-12T10:16:46;100766.09;;;23.04;78.16
78337;BME280;67610;51.588;7.002;2023-08-12T10:19:12;100764.59;;;23.08;77.95
78337;BME280;67610;51.588;7.002;2023-08-12T10:21:37;100761.25;;;23.24;77.92
78337;BME280;67610;51.588;7.002;2023-08-12T10:24:03;100761.31;;;23.47;77.12
78337;BME280;67610;51.588;7.002;2023-08-12T10:26:30;100768.19;;;23.66;76.46
78337;BME280;67610;51.588;7.002;2023-08-12T10:28:59;100764.22;;;23.80;76.49
78337;BME280;67610;51.588;7.002;2023-08-12T10:31:26;100767.13;;;23.90;75.93
78337;BME280;67610;51.588;7.002;2023-08-12T10:33:53;100772.13;;;23.98;75.83
78337;BME280;67610;51.588;7.002;2023-08-12T10:36:20;100761.38;;;24.10;75.69
78337;BME280;67610;51.588;7.002;2023-08-12T10:38:46;100765.59;;;24.17;74.54
78337;BME280;67610;51.588;7.002;2023-08-12T10:41:16;100769.34;;;24.16;74.58
78337;BME280;67610;51.588;7.002;2023-08-12T10:43:55;100769.34;;;24.16;74.11
78337;BME280;67610;51.588;7.002;2023-08-12T10:46:36;100771.44;;;24.14;74.56
78337;BME280;67610;51.588;7.002;2023-08-12T10:49:07;100765.97;;;24.09;74.40
78337;BME280;67610;51.588;7.002;2023-08-12T10:54:27;100770.03;;;24.00;73.72
78337;BME280;67610;51.588;7.002;2023-08-12T11:05:12;100767.00;;;23.85;73.91
78337;BME280;67610;51.588;7.002;2023-08-12T11:07:47;100765.41;;;23.84;74.06
78337;BME280;67610;51.588;7.002;2023-08-12T11:10:20;100758.13;;;23.73;74.10
78337;BME280;67610;51.588;7.002;2023-08-12T11:12:56;100754.16;;;23.64;74.91
78337;BME280;67610;51.588;7.002;2023-08-12T11:17:59;100748.81;;;23.64;74.58
78337;BME280;67610;51.588;7.002;2023-08-12T11:20:27;100756.03;;;23.63;74.70
78337;BME280;67610;51.588;7.002;2023-08-12T11:22:54;100753.00;;;23.60;74.72
78337;BME280;67610;51.588;7.002;2023-08-12T11:25:20;100746.59;;;23.61;74.63
78337;BME280;67610;51.588;7.002;2023-08-12T11:27:47;100740.63;;;23.59;74.49
78337;BME280;67610;51.588;7.002;2023-08-12T11:30:15;100746.59;;;23.61;74.42
78337;BME280;67610;51.588;7.002;2023-08-12T11:32:45;100736.06;;;23.59;74.82
78337;BME280;67610;51.588;7.002;2023-08-12T11:35:12;100735.03;;;23.60;75.12
78337;BME280;67610;51.588;7.002;2023-08-12T11:37:39;100728.97;;;23.65;75.19
78337;BME280;67610;51.588;7.002;2023-08-12T11:40:06;100732.91;;;23.74;74.76
78337;BME280;67610;51.588;7.002;2023-08-12T11:42:33;100737.34;;;23.80;75.04
78337;BME280;67610;51.588;7.002;2023-08-12T11:44:59;100733.72;;;23.86;74.48
78337;BME280;67610;51.588;7.002;2023-08-12T11:47:24;100737.47;;;23.85;74.20
78337;BME280;67610;51.588;7.002;2023-08-12T11:49:52;100735.22;;;23.82;74.50
78337;BME280;67610;51.588;7.002;2023-08-12T11:52:19;100739.44;;;23.78;75.22
78337;BME280;67610;51.588;7.002;2023-08-12T11:54:44;100754.03;;;23.82;75.18
78337;BME280;67610;51.588;7.002;2023-08-12T11:57:10;100745.19;;;23.82;75.35
78337;BME280;67610;51.588;7.002;2023-08-12T11:59:36;100746.94;;;23.76;75.60
78337;BME280;67610;51.588;7.002;2023-08-12T12:02:02;100743.91;;;23.61;75.59
78337;BME280;67610;51.588;7.002;2023-08-12T12:04:31;100748.69;;;23.59;75.52
78337;BME280;67610;51.588;7.002;2023-08-12T12:06:57;100744.63;;;23.56;76.10
78337;BME280;67610;51.588;7.002;2023-08-12T12:09:22;100751.59;;;23.57;75.61
78337;BME280;67610;51.588;7.002;2023-08-12T12:11:52;100747.50;;;23.67;75.29
78337;BME280;67610;51.588;7.002;2023-08-12T12:14:17;100753.94;;;23.77;75.47
78337;BME280;67610;51.588;7.002;2023-08-12T12:16:45;100748.78;;;23.87;74.77
78337;BME280;67610;51.588;7.002;2023-08-12T12:19:16;100752.03;;;24.01;75.02
78337;BME280;67610;51.588;7.002;2023-08-12T12:21:42;100746.34;;;24.09;73.97
78337;BME280;67610;51.588;7.002;2023-08-12T12:24:10;100749.31;;;24.24;74.30
78337;BME280;67610;51.588;7.002;2023-08-12T12:26:36;100745.66;;;24.42;73.44
78337;BME280;67610;51.588;7.002;2023-08-12T12:29:05;100742.44;;;24.56;73.06
78337;BME280;67610;51.588;7.002;2023-08-12T12:31:32;100733.00;;;24.70;72.42
78337;BME280;67610;51.588;7.002;2023-08-12T12:33:59;100732.19;;;24.81;72.26
78337;BME280;67610;51.588;7.002;2023-08-12T12:36:24;100735.56;;;24.77;72.13
78337;BME280;67610;51.588;7.002;2023-08-12T12:38:50;100742.59;;;24.78;72.36
78337;BME280;67610;51.588;7.002;2023-08-12T12:41:15;100740.59;;;24.85;71.82
78337;BME280;67610;51.588;7.002;2023-08-12T12:43:40;100738.31;;;24.93;71.83
78337;BME280;67610;51.588;7.002;2023-08-12T12:46:06;100745.75;;;25.03;70.87
78337;BME280;67610;51.588;7.002;2023-08-12T12:48:32;100749.06;;;24.93;71.45
78337;BME280;67610;51.588;7.002;2023-08-12T12:50:58;100756.47;;;24.86;71.46
78337;BME280;67610;51.588;7.002;2023-08-12T12:53:23;100756.63;;;24.80;71.29
78337;BME280;67610;51.588;7.002;2023-08-12T12:55:48;100762.38;;;24.72;71.35
78337;BME280;67610;51.588;7.002;2023-08-12T12:58:14;100765.69;;;24.62;71.59
78337;BME280;67610;51.588;7.002;2023-08-12T13:00:39;100758.56;;;24.56;71.25
78337;BME280;67610;51.588;7.002;2023-08-12T13:03:05;100764.34;;;24.48;71.56
78337;BME280;67610;51.588;7.002;2023-08-12T13:05:30;100768.47;;;24.39;71.96